sensor_id;sensor_type;location;lat;lon;timestamp;temperature;humidity
44823;DHT22;51097;51.984;5.650;2024-03-08T00:00:26;6.50;99.90
44823;DHT22;51097;51.984;5.650;2024-03-08T00:02:52;6.40;99.90
44823;DHT22;51097;51.984;5.650;2024-03-08T00:05:19;6.50;99.90
44823;DHT22;51097;51.984;5.650;2024-03-08T00:07:46;6.30;99.90
44823;DHT22;51097;51.984;5.650;2024-03-08T00:10:12;6.30;99.90
44823;DHT22;51097;51.984;5.650;2024-03-08T00:12:43;6.40;99.90
44823;DHT22;51097;51.984;5.650;2024-03-08T00:15:17;6.50;99.90
44823;DHT22;51097;51.984;5.650;2024-03-08T00:17:44;6.40;99.90
44823;DHT22;51097;51.984;5.650;2024-03-08T00:20:10;6.40;99.90
44823;DHT22;51097;51.984;5.650;2024-03-08T00:22:39;6.30;99.90
44823;DHT22;51097;51.984;5.650;2024-03-08T00:25:06;6.30;99.90
44823;DHT22;51097;51.984;5.650;2024-03-08T00:27:34;6.20;99.90
44823;DHT22;51097;51.984;5.650;2024-03-08T00:30:00;6.30;99.90
44823;DHT22;51097;51.984;5.650;2024-03-08T00:32:26;6.20;99.90
44823;DHT22;51097;51.984;5.650;2024-03-08T00:34:57;6.20;99.90
44823;DHT22;51097;51.984;5.650;2024-03-08T00:37:22;6.10;99.90
44823;DHT22;51097;51.984;5.650;2024-03-08T00:39:49;6.20;99.90
44823;DHT22;51097;51.984;5.650;2024-03-08T00:42:15;6.20;99.90
44823;DHT22;51097;51.984;5.650;2024-03-08T00:44:41;6.20;99.90
44823;DHT22;51097;51.984;5.650;2024-03-08T00:47:07;6.10;99.90
44823;DHT22;51097;51.984;5.650;2024-03-08T00:49:32;6.10;99.90
44823;DHT22;51097;51.984;5.650;2024-03-08T00:51:58;6.10;99.90
44823;DHT22;51097;51.984;5.650;2024-03-08T00:54:23;6.20;99.90
44823;DHT22;51097;51.984;5.650;2024-03-08T00:56:49;6.10;99.90
44823;DHT22;51097;51.984;5.650;2024-03-08T00:59:14;5.90;99.90
44823;DHT22;51097;51.984;5.650;2024-03-08T01:01:40;5.90;99.90
44823;DHT22;51097;51.984;5.650;2024-03-08T01:04:06;5.80;99.90
44823;DHT22;51097;51.984;5.650;2024-03-08T01:06:33;5.70;99.90
44823;DHT22;51097;51.984;5.650;2024-03-08T01:08:59;5.70;99.90
44823;DHT22;51097;51.984;5.650;2024-03-08T01:11:25;5.80;99.90
44823;DHT22;51097;51.984;5.650;2024-03-08T01:13:50;5.90;99.90
44823;DHT22;51097;51.984;5.650;2024-03-08T01:16:16;5.90;99.90
44823;DHT22;51097;51.984;5.650;2024-03-08T01:18:46;5.90;99.90
44823;DHT22;51097;51.984;5.650;2024-03-08T01:21:12;5.90;99.90
44823;DHT22;51097;51.984;5.650;2024-03-08T01:23:39;5.80;99.90
44823;DHT22;51097;51.984;5.650;2024-03-08T01:26:05;5.80;99.90
44823;DHT22;51097;51.984;5.650;2024-03-08T01:28:31;5.70;99.90
44823;DHT22;51097;51.984;5.650;2024-03-08T01:30:59;5.70;99.90
44823;DHT22;51097;51.984;5.650;2024-03-08T01:33:26;5.60;99.90
44823;DHT22;51097;51.984;5.650;2024-03-08T01:35:52;5.60;99.90
44823;DHT22;51097;51.984;5.650;2024-03-08T01:38:19;5.60;99.90
44823;DHT22;51097;51.984;5.650;2024-03-08T01:40:44;5.60;99.90
44823;DHT22;51097;51.984;5.650;2024-03-08T01:43:25;5.50;99.90
44823;DHT22;51097;51.984;5.650;2024-03-08T01:45:52;5.60;99.90
44823;DHT22;51097;51.984;5.650;2024-03-08T01:48:19;5.50;99.90
44823;DHT22;51097;51.984;5.650;2024-03-08T01:50:47;5.50;99.90
44823;DHT22;51097;51.984;5.650;2024-03-08T01:53:13;5.50;99.90
44823;DHT22;51097;51.984;5.650;2024-03-08T01:55:40;5.40;99.90
44823;DHT22;51097;51.984;5.650;2024-03-08T01:58:09;5.40;99.90
44823;DHT22;51097;51.984;5.650;2024-03-08T02:00:35;5.40;99.90
44823;DHT22;51097;51.984;5.650;2024-03-08T02:03:02;5.50;99.90
44823;DHT22;51097;51.984;5.650;2024-03-08T02:05:28;5.30;99.90
44823;DHT22;51097;51.984;5.650;2024-03-08T02:07:54;5.40;99.90
44823;DHT22;51097;51.984;5.650;2024-03-08T02:10:20;5.40;99.90
44823;DHT22;51097;51.984;5.650;2024-03-08T02:12:47;5.30;99.90
44823;DHT22;51097;51.984;5.650;2024-03-08T02:15:13;5.20;99.90
44823;DHT22;51097;51.984;5.650;2024-03-08T02:17:40;5.20;99.90
44823;DHT22;51097;51.984;5.650;2024-03-08T02:20:06;5.20;99.90
44823;DHT22;51097;51.984;5.650;2024-03-08T02:22:34;5.20;99.90
44823;DHT22;51097;51.984;5.650;2024-03-08T02:25:00;5.10;99.90
44823;DHT22;51097;51.984;5.650;2024-03-08T02:27:27;5.20;99.90
44823;DHT22;51097;51.984;5.650;2024-03-08T02:29:55;5.20;99.90
44823;DHT22;51097;51.984;5.650;2024-03-08T02:32:25;5.20;99.90
44823;DHT22;51097;51.984;5.650;2024-03-08T02:34:50;5.10;99.90
44823;DHT22;51097;51.984;5.650;2024-03-08T02:37:17;5.10;99.90
44823;DHT22;51097;51.984;5.650;2024-03-08T02:39:43;5.20;99.90
44823;DHT22;51097;51.984;5.650;2024-03-08T02:42:08;5.10;99.90
44823;DHT22;51097;51.984;5.650;2024-03-08T02:44:34;5.00;99.90
44823;DHT22;51097;51.984;5.650;2024-03-08T02:47:00;5.10;99.90
44823;DHT22;51097;51.984;5.650;2024-03-08T02:49:29;5.10;99.90
44823;DHT22;51097;51.984;5.650;2024-03-08T02:51:54;5.10;99.90
44823;DHT22;51097;51.984;5.650;2024-03-08T02:54:22;5.00;99.90
44823;DHT22;51097;51.984;5.650;2024-03-08T02:56:49;5.00;99.90
44823;DHT22;51097;51.984;5.650;2024-03-08T02:59:17;4.90;99.90
44823;DHT22;51097;51.984;5.650;2024-03-08T03:01:44;4.90;99.90
44823;DHT22;51097;51.984;5.650;2024-03-08T03:04:09;4.90;99.90
44823;DHT22;51097;51.984;5.650;2024-03-08T03:06:35;4.70;99.90
44823;DHT22;51097;51.984;5.650;2024-03-08T03:09:01;4.80;99.90
44823;DHT22;51097;51.984;5.650;2024-03-08T03:11:27;4.90;99.90
44823;DHT22;51097;51.984;5.650;2024-03-08T03:13:52;5.00;99.90
44823;DHT22;51097;51.984;5.650;2024-03-08T03:16:19;5.10;99.90
44823;DHT22;51097;51.984;5.650;2024-03-08T03:18:48;5.10;99.90
44823;DHT22;51097;51.984;5.650;2024-03-08T03:21:14;5.00;99.90
44823;DHT22;51097;51.984;5.650;2024-03-08T03:23:40;4.90;99.90
44823;DHT22;51097;51.984;5.650;2024-03-08T03:26:09;4.90;99.90
44823;DHT22;51097;51.984;5.650;2024-03-08T03:28:39;4.90;99.90
44823;DHT22;51097;51.984;5.650;2024-03-08T03:31:06;4.70;99.90
44823;DHT22;51097;51.984;5.650;2024-03-08T03:33:32;4.60;99.90
44823;DHT22;51097;51.984;5.650;2024-03-08T03:35:59;4.60;99.90
44823;DHT22;51097;51.984;5.650;2024-03-08T03:38:26;4.80;99.90
44823;DHT22;51097;51.984;5.650;2024-03-08T03:40:53;4.70;99.90
44823;DHT22;51097;51.984;5.650;2024-03-08T03:43:23;4.90;99.90
44823;DHT22;51097;51.984;5.650;2024-03-08T03:45:48;4.90;99.90
44823;DHT22;51097;51.984;5.650;2024-03-08T03:48:14;4.90;99.90
44823;DHT22;51097;51.984;5.650;2024-03-08T03:50:39;4.80;99.90
44823;DHT22;51097;51.984;5.650;2024-03-08T03:53:05;4.80;99.90
44823;DHT22;51097;51.984;5.650;2024-03-08T03:55:33;4.80;99.90
44823;DHT22;51097;51.984;5.650;2024-03-08T03:57:59;4.90;99.90
44823;DHT22;51097;51.984;5.650;2024-03-08T04:00:26;4.90;99.90
44823;DHT22;51097;51.984;5.650;2024-03-08T04:02:52;4.90;99.90
44823;DHT22;51097;51.984;5.650;2024-03-08T04:05:18;4.80;99.90
44823;DHT22;51097;51.984;5.650;2024-03-08T04:07:43;4.80;99.90
44823;DHT22;51097;51.984;5.650;2024-03-08T04:10:10;4.80;99.90
44823;DHT22;51097;51.984;5.650;2024-03-08T04:12:37;4.80;99.90
44823;DHT22;51097;51.984;5.650;2024-03-08T04:15:03;4.90;99.90
44823;DHT22;51097;51.984;5.650;2024-03-08T04:17:30;4.70;99.90
44823;DHT22;51097;51.984;5.650;2024-03-08T04:19:55;4.70;99.90
44823;DHT22;51097;51.984;5.650;2024-03-08T04:22:22;4.80;99.90
44823;DHT22;51097;51.984;5.650;2024-03-08T04:24:48;4.90;99.90
44823;DHT22;51097;51.984;5.650;2024-03-08T04:27:14;4.90;99.90
44823;DHT22;51097;51.984;5.650;2024-03-08T04:29:42;4.90;99.90
44823;DHT22;51097;51.984;5.650;2024-03-08T04:32:08;4.90;99.90
44823;DHT22;51097;51.984;5.650;2024-03-08T04:34:34;4.90;99.90
44823;DHT22;51097;51.984;5.650;2024-03-08T04:37:00;4.80;99.90
44823;DHT22;51097;51.984;5.650;2024-03-08T04:39:26;4.80;99.90
44823;DHT22;51097;51.984;5.650;2024-03-08T04:41:58;4.80;99.90
44823;DHT22;51097;51.984;5.650;2024-03-08T04:44:24;4.70;99.90
44823;DHT22;51097;51.984;5.650;2024-03-08T04:46:50;4.80;99.90
44823;DHT22;51097;51.984;5.650;2024-03-08T04:49:16;4.70;99.90
44823;DHT22;51097;51.984;5.650;2024-03-08T04:51:42;4.70;99.90
44823;DHT22;51097;51.984;5.650;2024-03-08T04:54:07;4.60;99.90
44823;DHT22;51097;51.984;5.650;2024-03-08T04:56:33;4.60;99.90
44823;DHT22;51097;51.984;5.650;2024-03-08T04:58:59;4.60;99.90
44823;DHT22;51097;51.984;5.650;2024-03-08T05:01:24;4.50;99.90
44823;DHT22;51097;51.984;5.650;2024-03-08T05:03:50;4.60;99.90
44823;DHT22;51097;51.984;5.650;2024-03-08T05:06:16;4.60;99.90
44823;DHT22;51097;51.984;5.650;2024-03-08T05:08:42;4.70;99.90
44823;DHT22;51097;51.984;5.650;2024-03-08T05:11:07;4.70;99.90
44823;DHT22;51097;51.984;5.650;2024-03-08T05:13:33;4.80;99.90
44823;DHT22;51097;51.984;5.650;2024-03-08T05:15:59;4.70;99.90
44823;DHT22;51097;51.984;5.650;2024-03-08T05:18:25;4.70;99.90
44823;DHT22;51097;51.984;5.650;2024-03-08T05:20:51;4.60;99.90
44823;DHT22;51097;51.984;5.650;2024-03-08T05:23:17;4.60;99.90
44823;DHT22;51097;51.984;5.650;2024-03-08T05:25:45;4.60;99.90
44823;DHT22;51097;51.984;5.650;2024-03-08T05:28:12;4.50;99.90
44823;DHT22;51097;51.984;5.650;2024-03-08T05:30:38;4.50;99.90
44823;DHT22;51097;51.984;5.650;2024-03-08T05:33:04;4.40;99.90
44823;DHT22;51097;51.984;5.650;2024-03-08T05:35:29;4.50;99.90
44823;DHT22;51097;51.984;5.650;2024-03-08T05:37:55;4.50;99.90
44823;DHT22;51097;51.984;5.650;2024-03-08T05:40:21;4.50;99.90
44823;DHT22;51097;51.984;5.650;2024-03-08T05:42:46;4.50;99.90
44823;DHT22;51097;51.984;5.650;2024-03-08T05:45:12;4.50;99.90
44823;DHT22;51097;51.984;5.650;2024-03-08T05:47:39;4.50;99.90
44823;DHT22;51097;51.984;5.650;2024-03-08T05:50:05;4.60;99.90
44823;DHT22;51097;51.984;5.650;2024-03-08T05:52:32;4.60;99.90
44823;DHT22;51097;51.984;5.650;2024-03-08T05:54:58;4.50;99.90
44823;DHT22;51097;51.984;5.650;2024-03-08T05:57:24;4.60;99.90
44823;DHT22;51097;51.984;5.650;2024-03-08T05:59:49;4.50;99.90
44823;DHT22;51097;51.984;5.650;2024-03-08T06:02:15;4.40;99.90
44823;DHT22;51097;51.984;5.650;2024-03-08T06:04:47;4.50;99.90
44823;DHT22;51097;51.984;5.650;2024-03-08T06:07:12;4.40;99.90
44823;DHT22;51097;51.984;5.650;2024-03-08T06:09:38;4.50;99.90
44823;DHT22;51097;51.984;5.650;2024-03-08T06:12:04;4.50;99.90
44823;DHT22;51097;51.984;5.650;2024-03-08T06:14:31;4.50;99.90
44823;DHT22;51097;51.984;5.650;2024-03-08T06:16:57;4.50;99.90
44823;DHT22;51097;51.984;5.650;2024-03-08T06:19:23;4.40;99.90
44823;DHT22;51097;51.984;5.650;2024-03-08T06:21:48;4.50;99.90
44823;DHT22;51097;51.984;5.650;2024-03-08T06:24:14;4.40;99.90
44823;DHT22;51097;51.984;5.650;2024-03-08T06:26:40;4.40;99.90
44823;DHT22;51097;51.984;5.650;2024-03-08T06:29:06;4.50;99.90
44823;DHT22;51097;51.984;5.650;2024-03-08T06:31:32;4.60;99.90
44823;DHT22;51097;51.984;5.650;2024-03-08T06:33:58;4.60;99.90
44823;DHT22;51097;51.984;5.650;2024-03-08T06:36:23;4.60;99.90
44823;DHT22;51097;51.984;5.650;2024-03-08T06:38:49;4.50;99.90
44823;DHT22;51097;51.984;5.650;2024-03-08T06:41:15;4.60;99.90
44823;DHT22;51097;51.984;5.650;2024-03-08T06:43:44;4.50;99.90
44823;DHT22;51097;51.984;5.650;2024-03-08T06:46:10;4.40;99.90
44823;DHT22;51097;51.984;5.650;2024-03-08T06:48:38;4.40;99.90
44823;DHT22;51097;51.984;5.650;2024-03-08T06:51:04;4.40;99.90
44823;DHT22;51097;51.984;5.650;2024-03-08T06:53:30;4.40;99.90
44823;DHT22;51097;51.984;5.650;2024-03-08T06:55:57;4.40;99.90
44823;DHT22;51097;51.984;5.650;2024-03-08T06:58:23;4.50;99.90
44823;DHT22;51097;51.984;5.650;2024-03-08T07:00:48;4.50;99.90
44823;DHT22;51097;51.984;5.650;2024-03-08T07:03:17;4.50;99.90
44823;DHT22;51097;51.984;5.650;2024-03-08T07:05:43;4.60;99.90
44823;DHT22;51097;51.984;5.650;2024-03-08T07:08:09;4.60;99.90
44823;DHT22;51097;51.984;5.650;2024-03-08T07:10:35;4.60;99.90
44823;DHT22;51097;51.984;5.650;2024-03-08T07:13:02;4.60;99.90
44823;DHT22;51097;51.984;5.650;2024-03-08T07:15:28;4.70;99.90
44823;DHT22;51097;51.984;5.650;2024-03-08T07:17:54;4.70;99.90
44823;DHT22;51097;51.984;5.650;2024-03-08T07:20:20;4.80;99.90
44823;DHT22;51097;51.984;5.650;2024-03-08T07:22:47;4.70;99.90
44823;DHT22;51097;51.984;5.650;2024-03-08T07:25:13;4.80;99.90
44823;DHT22;51097;51.984;5.650;2024-03-08T07:27:53;4.80;99.90
44823;DHT22;51097;51.984;5.650;2024-03-08T07:30:19;4.90;99.90
44823;DHT22;51097;51.984;5.650;2024-03-08T07:33:05;5.00;99.90
44823;DHT22;51097;51.984;5.650;2024-03-08T07:35:32;5.00;99.90
44823;DHT22;51097;51.984;5.650;2024-03-08T07:37:58;5.10;99.90
44823;DHT22;51097;51.984;5.650;2024-03-08T07:40:25;5.10;99.90
44823;DHT22;51097;51.984;5.650;2024-03-08T07:42:51;5.20;99.90
44823;DHT22;51097;51.984;5.650;2024-03-08T07:45:17;5.30;99.90
44823;DHT22;51097;51.984;5.650;2024-03-08T07:47:43;5.20;99.90
44823;DHT22;51097;51.984;5.650;2024-03-08T07:50:09;5.20;99.90
44823;DHT22;51097;51.984;5.650;2024-03-08T07:52:35;5.30;99.90
44823;DHT22;51097;51.984;5.650;2024-03-08T07:55:02;5.20;99.90
44823;DHT22;51097;51.984;5.650;2024-03-08T07:57:29;5.40;99.90
44823;DHT22;51097;51.984;5.650;2024-03-08T07:59:55;5.50;99.90
44823;DHT22;51097;51.984;5.650;2024-03-08T08:02:21;5.50;99.90
44823;DHT22;51097;51.984;5.650;2024-03-08T08:04:46;5.70;99.90
44823;DHT22;51097;51.984;5.650;2024-03-08T08:07:12;5.70;99.90
44823;DHT22;51097;51.984;5.650;2024-03-08T08:09:38;5.80;99.90
44823;DHT22;51097;51.984;5.650;2024-03-08T08:12:04;5.80;99.90
44823;DHT22;51097;51.984;5.650;2024-03-08T08:14:30;6.00;99.90
44823;DHT22;51097;51.984;5.650;2024-03-08T08:16:56;5.90;99.90
44823;DHT22;51097;51.984;5.650;2024-03-08T08:19:23;6.00;99.90
44823;DHT22;51097;51.984;5.650;2024-03-08T08:21:48;6.10;99.90
44823;DHT22;51097;51.984;5.650;2024-03-08T08:24:14;6.30;99.90
44823;DHT22;51097;51.984;5.650;2024-03-08T08:26:40;6.50;99.90
44823;DHT22;51097;51.984;5.650;2024-03-08T08:29:06;6.50;99.90
44823;DHT22;51097;51.984;5.650;2024-03-08T08:31:32;6.70;99.90
44823;DHT22;51097;51.984;5.650;2024-03-08T08:33:58;6.80;99.90
44823;DHT22;51097;51.984;5.650;2024-03-08T08:36:24;6.90;99.90
44823;DHT22;51097;51.984;5.650;2024-03-08T08:38:50;7.00;99.90
44823;DHT22;51097;51.984;5.650;2024-03-08T08:41:15;7.10;99.90
44823;DHT22;51097;51.984;5.650;2024-03-08T08:43:43;7.30;99.90
44823;DHT22;51097;51.984;5.650;2024-03-08T08:46:10;7.40;99.90
44823;DHT22;51097;51.984;5.650;2024-03-08T08:48:39;7.50;99.90
44823;DHT22;51097;51.984;5.650;2024-03-08T08:51:09;7.50;99.90
44823;DHT22;51097;51.984;5.650;2024-03-08T08:53:38;7.60;99.90
44823;DHT22;51097;51.984;5.650;2024-03-08T08:56:06;7.80;99.90
44823;DHT22;51097;51.984;5.650;2024-03-08T08:58:33;7.90;99.90
44823;DHT22;51097;51.984;5.650;2024-03-08T09:00:59;8.10;99.90
44823;DHT22;51097;51.984;5.650;2024-03-08T09:03:25;8.20;99.90
44823;DHT22;51097;51.984;5.650;2024-03-08T09:05:52;8.30;99.90
44823;DHT22;51097;51.984;5.650;2024-03-08T09:08:18;8.40;99.90
44823;DHT22;51097;51.984;5.650;2024-03-08T09:10:43;8.50;99.90
44823;DHT22;51097;51.984;5.650;2024-03-08T09:13:09;8.70;99.90
44823;DHT22;51097;51.984;5.650;2024-03-08T09:15:36;8.90;99.90
44823;DHT22;51097;51.984;5.650;2024-03-08T09:18:06;8.90;99.90
44823;DHT22;51097;51.984;5.650;2024-03-08T09:20:31;8.90;99.90
44823;DHT22;51097;51.984;5.650;2024-03-08T09:22:57;9.00;99.90
44823;DHT22;51097;51.984;5.650;2024-03-08T09:25:23;9.10;99.90
44823;DHT22;51097;51.984;5.650;2024-03-08T09:27:49;9.20;99.90
44823;DHT22;51097;51.984;5.650;2024-03-08T09:30:15;9.10;99.90
44823;DHT22;51097;51.984;5.650;2024-03-08T09:32:41;9.10;99.90
44823;DHT22;51097;51.984;5.650;2024-03-08T09:35:08;9.30;99.90
44823;DHT22;51097;51.984;5.650;2024-03-08T09:37:34;9.40;99.90
44823;DHT22;51097;51.984;5.650;2024-03-08T09:40:00;9.60;99.90
44823;DHT22;51097;51.984;5.650;2024-03-08T09:42:30;9.60;99.90
44823;DHT22;51097;51.984;5.650;2024-03-08T09:44:57;9.60;99.90
44823;DHT22;51097;51.984;5.650;2024-03-08T09:47:25;9.60;99.90
44823;DHT22;51097;51.984;5.650;2024-03-08T09:49:54;9.70;99.90
44823;DHT22;51097;51.984;5.650;2024-03-08T09:52:20;9.70;99.90
44823;DHT22;51097;51.984;5.650;2024-03-08T09:54:46;9.80;99.90
44823;DHT22;51097;51.984;5.650;2024-03-08T09:57:11;9.90;99.90
44823;DHT22;51097;51.984;5.650;2024-03-08T09:59:37;10.00;99.90
44823;DHT22;51097;51.984;5.650;2024-03-08T10:02:03;10.20;99.90
44823;DHT22;51097;51.984;5.650;2024-03-08T10:04:30;10.40;99.90
44823;DHT22;51097;51.984;5.650;2024-03-08T10:06:58;10.40;99.90
44823;DHT22;51097;51.984;5.650;2024-03-08T10:09:25;10.70;99.90
44823;DHT22;51097;51.984;5.650;2024-03-08T10:11:56;10.70;99.90
44823;DHT22;51097;51.984;5.650;2024-03-08T10:14:23;10.70;99.90
44823;DHT22;51097;51.984;5.650;2024-03-08T10:16:49;10.70;99.90
44823;DHT22;51097;51.984;5.650;2024-03-08T10:19:15;10.60;99.90
44823;DHT22;51097;51.984;5.650;2024-03-08T10:21:50;10.60;99.90
44823;DHT22;51097;51.984;5.650;2024-03-08T10:24:19;10.70;99.90
44823;DHT22;51097;51.984;5.650;2024-03-08T10:26:45;10.70;99.90
44823;DHT22;51097;51.984;5.650;2024-03-08T10:29:12;10.90;99.90
44823;DHT22;51097;51.984;5.650;2024-03-08T10:31:43;11.00;99.90
44823;DHT22;51097;51.984;5.650;2024-03-08T10:34:10;11.20;99.90
44823;DHT22;51097;51.984;5.650;2024-03-08T10:36:36;11.30;99.90
44823;DHT22;51097;51.984;5.650;2024-03-08T10:39:07;11.20;99.90
44823;DHT22;51097;51.984;5.650;2024-03-08T10:41:37;11.10;99.90
44823;DHT22;51097;51.984;5.650;2024-03-08T10:47:02;11.30;99.90
44823;DHT22;51097;51.984;5.650;2024-03-08T10:49:32;11.50;99.90
44823;DHT22;51097;51.984;5.650;2024-03-08T10:52:03;11.60;99.90
44823;DHT22;51097;51.984;5.650;2024-03-08T10:54:31;11.50;99.90
44823;DHT22;51097;51.984;5.650;2024-03-08T10:56:57;11.60;99.90
44823;DHT22;51097;51.984;5.650;2024-03-08T10:59:25;11.60;99.90
44823;DHT22;51097;51.984;5.650;2024-03-08T11:01:52;11.40;99.90
44823;DHT22;51097;51.984;5.650;2024-03-08T11:04:18;11.60;99.90
44823;DHT22;51097;51.984;5.650;2024-03-08T11:06:48;11.90;99.90
44823;DHT22;51097;51.984;5.650;2024-03-08T11:09:31;11.90;99.90
44823;DHT22;51097;51.984;5.650;2024-03-08T11:12:25;11.80;99.90
44823;DHT22;51097;51.984;5.650;2024-03-08T11:14:53;11.90;99.90
44823;DHT22;51097;51.984;5.650;2024-03-08T11:19:56;12.10;99.90
44823;DHT22;51097;51.984;5.650;2024-03-08T11:22:26;12.20;99.90
44823;DHT22;51097;51.984;5.650;2024-03-08T11:24:53;12.30;99.90
44823;DHT22;51097;51.984;5.650;2024-03-08T11:27:18;12.40;99.90
44823;DHT22;51097;51.984;5.650;2024-03-08T11:30:02;12.30;99.90
44823;DHT22;51097;51.984;5.650;2024-03-08T11:32:37;12.40;99.90
44823;DHT22;51097;51.984;5.650;2024-03-08T11:35:07;12.50;99.90
44823;DHT22;51097;51.984;5.650;2024-03-08T11:37:34;12.50;99.90
44823;DHT22;51097;51.984;5.650;2024-03-08T11:40:01;12.60;99.90
44823;DHT22;51097;51.984;5.650;2024-03-08T11:42:30;12.70;99.90
44823;DHT22;51097;51.984;5.650;2024-03-08T11:44:56;12.60;99.90
44823;DHT22;51097;51.984;5.650;2024-03-08T11:47:22;12.70;99.90
44823;DHT22;51097;51.984;5.650;2024-03-08T11:49:48;12.70;99.90
44823;DHT22;51097;51.984;5.650;2024-03-08T11:52:18;12.80;99.90
44823;DHT22;51097;51.984;5.650;2024-03-08T11:54:54;12.60;99.90
44823;DHT22;51097;51.984;5.650;2024-03-08T11:57:25;12.60;99.90
44823;DHT22;51097;51.984;5.650;2024-03-08T11:59:52;12.60;99.90
44823;DHT22;51097;51.984;5.650;2024-03-08T12:02:18;12.70;99.90
44823;DHT22;51097;51.984;5.650;2024-03-08T12:04:45;12.70;99.90
44823;DHT22;51097;51.984;5.650;2024-03-08T12:07:13;12.90;99.90
44823;DHT22;51097;51.984;5.650;2024-03-08T12:09:42;12.90;99.90
44823;DHT22;51097;51.984;5.650;2024-03-08T12:12:12;13.00;99.90
44823;DHT22;51097;51.984;5.650;2024-03-08T12:14:38;12.90;99.90
44823;DHT22;51097;51.984;5.650;2024-03-08T12:17:04;12.90;99.90
44823;DHT22;51097;51.984;5.650;2024-03-08T12:19:30;13.10;99.90
44823;DHT22;51097;51.984;5.650;2024-03-08T12:21:56;13.20;99.90
44823;DHT22;51097;51.984;5.650;2024-03-08T12:24:22;13.30;99.90
44823;DHT22;51097;51.984;5.650;2024-03-08T12:26:48;13.40;99.30
44823;DHT22;51097;51.984;5.650;2024-03-08T12:31:50;13.20;99.90
44823;DHT22;51097;51.984;5.650;2024-03-08T12:34:16;13.20;99.90
44823;DHT22;51097;51.984;5.650;2024-03-08T12:36:46;13.20;99.90
44823;DHT22;51097;51.984;5.650;2024-03-08T12:39:18;13.20;99.90
44823;DHT22;51097;51.984;5.650;2024-03-08T12:41:48;13.00;98.80
44823;DHT22;51097;51.984;5.650;2024-03-08T12:44:14;13.10;99.80
44823;DHT22;51097;51.984;5.650;2024-03-08T12:46:40;13.40;99.70
44823;DHT22;51097;51.984;5.650;2024-03-08T12:49:09;13.40;99.90
44823;DHT22;51097;51.984;5.650;2024-03-08T12:51:35;13.60;99.90
44823;DHT22;51097;51.984;5.650;2024-03-08T12:54:02;13.60;99.90
44823;DHT22;51097;51.984;5.650;2024-03-08T12:56:32;13.60;99.90
44823;DHT22;51097;51.984;5.650;2024-03-08T12:58:59;13.80;99.20
44823;DHT22;51097;51.984;5.650;2024-03-08T13:01:25;14.00;99.50
44823;DHT22;51097;51.984;5.650;2024-03-08T13:03:52;14.00;98.70
44823;DHT22;51097;51.984;5.650;2024-03-08T13:06:18;14.20;99.10
44823;DHT22;51097;51.984;5.650;2024-03-08T13:08:49;14.20;98.10
44823;DHT22;51097;51.984;5.650;2024-03-08T13:11:16;14.00;98.00
44823;DHT22;51097;51.984;5.650;2024-03-08T13:13:42;14.30;98.50
44823;DHT22;51097;51.984;5.650;2024-03-08T13:16:08;14.30;97.60
44823;DHT22;51097;51.984;5.650;2024-03-08T13:18:34;14.00;98.00
44823;DHT22;51097;51.984;5.650;2024-03-08T13:21:00;14.00;98.00
44823;DHT22;51097;51.984;5.650;2024-03-08T13:23:32;13.90;98.60
44823;DHT22;51097;51.984;5.650;2024-03-08T13:25:57;13.80;98.20
44823;DHT22;51097;51.984;5.650;2024-03-08T13:28:23;14.00;98.60
44823;DHT22;51097;51.984;5.650;2024-03-08T13:30:53;13.80;97.90
44823;DHT22;51097;51.984;5.650;2024-03-08T13:33:19;13.80;99.90
44823;DHT22;51097;51.984;5.650;2024-03-08T13:35:46;14.00;99.30
44823;DHT22;51097;51.984;5.650;2024-03-08T13:38:12;14.20;99.20
44823;DHT22;51097;51.984;5.650;2024-03-08T13:40:39;14.40;99.10
44823;DHT22;51097;51.984;5.650;2024-03-08T13:43:06;14.30;97.90
44823;DHT22;51097;51.984;5.650;2024-03-08T13:45:34;14.30;98.10
44823;DHT22;51097;51.984;5.650;2024-03-08T13:48:03;14.50;97.70
44823;DHT22;51097;51.984;5.650;2024-03-08T13:50:30;14.40;98.00
44823;DHT22;51097;51.984;5.650;2024-03-08T13:52:55;14.50;98.60
44823;DHT22;51097;51.984;5.650;2024-03-08T13:55:21;14.60;99.30
44823;DHT22;51097;51.984;5.650;2024-03-08T13:57:48;14.90;99.40
44823;DHT22;51097;51.984;5.650;2024-03-08T14:00:14;14.90;98.50
44823;DHT22;51097;51.984;5.650;2024-03-08T14:02:40;14.90;99.00
44823;DHT22;51097;51.984;5.650;2024-03-08T14:05:09;14.80;97.80
44823;DHT22;51097;51.984;5.650;2024-03-08T14:07:36;14.70;98.40
44823;DHT22;51097;51.984;5.650;2024-03-08T14:10:02;14.80;97.10
44823;DHT22;51097;51.984;5.650;2024-03-08T14:12:28;14.80;97.90
44823;DHT22;51097;51.984;5.650;2024-03-08T14:14:55;14.70;96.60
44823;DHT22;51097;51.984;5.650;2024-03-08T14:17:23;14.70;98.80
44823;DHT22;51097;51.984;5.650;2024-03-08T14:19:48;14.80;97.10
44823;DHT22;51097;51.984;5.650;2024-03-08T14:22:15;14.50;97.40
44823;DHT22;51097;51.984;5.650;2024-03-08T14:24:41;14.40;96.80
44823;DHT22;51097;51.984;5.650;2024-03-08T14:27:08;14.10;96.80
44823;DHT22;51097;51.984;5.650;2024-03-08T14:29:35;14.20;97.40
44823;DHT22;51097;51.984;5.650;2024-03-08T14:32:01;14.20;96.90
44823;DHT22;51097;51.984;5.650;2024-03-08T14:34:28;14.10;98.90
44823;DHT22;51097;51.984;5.650;2024-03-08T14:36:56;14.30;98.10
44823;DHT22;51097;51.984;5.650;2024-03-08T14:39:21;14.20;97.50
44823;DHT22;51097;51.984;5.650;2024-03-08T14:41:52;14.10;97.60
44823;DHT22;51097;51.984;5.650;2024-03-08T14:44:20;13.80;97.80
44823;DHT22;51097;51.984;5.650;2024-03-08T14:46:46;13.70;97.60
44823;DHT22;51097;51.984;5.650;2024-03-08T14:49:12;13.60;98.40
44823;DHT22;51097;51.984;5.650;2024-03-08T14:51:38;13.70;98.80
44823;DHT22;51097;51.984;5.650;2024-03-08T14:54:03;13.90;98.10
44823;DHT22;51097;51.984;5.650;2024-03-08T14:56:32;13.90;98.30
44823;DHT22;51097;51.984;5.650;2024-03-08T14:58:58;14.00;98.20
44823;DHT22;51097;51.984;5.650;2024-03-08T15:01:25;13.80;97.90
44823;DHT22;51097;51.984;5.650;2024-03-08T15:03:57;14.00;98.10
44823;DHT22;51097;51.984;5.650;2024-03-08T15:06:28;13.70;97.80
44823;DHT22;51097;51.984;5.650;2024-03-08T15:08:56;13.60;98.00
44823;DHT22;51097;51.984;5.650;2024-03-08T15:11:23;13.40;97.80
44823;DHT22;51097;51.984;5.650;2024-03-08T15:13:50;13.50;98.50
44823;DHT22;51097;51.984;5.650;2024-03-08T15:16:23;13.60;98.20
44823;DHT22;51097;51.984;5.650;2024-03-08T15:18:50;13.70;97.70
44823;DHT22;51097;51.984;5.650;2024-03-08T15:21:17;13.50;97.70
44823;DHT22;51097;51.984;5.650;2024-03-08T15:23:46;13.60;98.50
44823;DHT22;51097;51.984;5.650;2024-03-08T15:26:17;13.50;98.50
44823;DHT22;51097;51.984;5.650;2024-03-08T15:28:43;13.60;98.70
44823;DHT22;51097;51.984;5.650;2024-03-08T15:31:12;13.60;98.40
44823;DHT22;51097;51.984;5.650;2024-03-08T15:33:39;13.50;98.50
44823;DHT22;51097;51.984;5.650;2024-03-08T15:36:14;13.60;98.70
44823;DHT22;51097;51.984;5.650;2024-03-08T15:38:42;13.50;98.80
44823;DHT22;51097;51.984;5.650;2024-03-08T15:41:15;13.50;99.20
44823;DHT22;51097;51.984;5.650;2024-03-08T15:43:43;13.50;98.70
44823;DHT22;51097;51.984;5.650;2024-03-08T15:46:09;13.30;99.10